LFMU/BZR METAR and TAF weather

Enter ICAO airport designator
Station Type Date Time Source
LFMU METAR 2018/12/19 03:00 UTC NOAA

LFMU 190300Z AUTO 03004KT CAVOK 11/08 Q1017 TEMPO BKN005 BKN100


Station Type Date Time Source
LFMU Decoded METAR 2018/12/19 03:00 UTC NOAA

Beziers / Vias, France (LFMU) 43-19N 003-21E
Dec 18, 2018 - 10:00 PM EST / 2018.12.19 0300 UTC
Wind: from the NNE (030 degrees) at 5 MPH (4 KT):0
Visibility: greater than 7 mile(s):0
Temperature: 51 F (11 C)
Dew Point: 46 F (8 C)
Relative Humidity: 81%
Pressure (altimeter): 30.03 in. Hg (1017 hPa)
ob: LFMU 190300Z AUTO 03004KT CAVOK 11/08 Q1017 TEMPO BKN005 BKN100
cycle: 3

Station Type Date Time Source
LFMU TAF 2018/12/19 03:21 UTC NOAA

TAF LFMU 190200Z 1903/2003 36010KT 9999 FEW030 BKN140
TEMPO 1903/1910 BKN005 BKN100
BECMG 1910/1912 27010KT


Example: see airport list